sensor_id;sensor_type;location;lat;lon;timestamp;pressure;altitude;pressure_sealevel;temperature
69597;BMP180;70000;51.176;-115.568;2023-07-22T00:01:05;86675.00;;;32.30
69597;BMP180;70000;51.176;-115.568;2023-07-22T00:04:21;86673.00;;;32.00
69597;BMP180;70000;51.176;-115.568;2023-07-22T00:06:57;86683.00;;;31.70
69597;BMP180;70000;51.176;-115.568;2023-07-22T00:10:09;86685.20;;;31.50
69597;BMP180;70000;51.176;-115.568;2023-07-22T00:13:12;86691.60;;;31.20
69597;BMP180;70000;51.176;-115.568;2023-07-22T00:16:16;86688.80;;;30.90
69597;BMP180;70000;51.176;-115.568;2023-07-22T00:18:46;86695.40;;;30.64
69597;BMP180;70000;51.176;-115.568;2023-07-22T00:21:20;86683.00;;;30.40
69597;BMP180;70000;51.176;-115.568;2023-07-22T00:23:50;86697.40;;;30.22
69597;BMP180;70000;51.176;-115.568;2023-07-22T00:26:27;86701.20;;;30.00
69597;BMP180;70000;51.176;-115.568;2023-07-22T00:29:03;86692.40;;;29.86
69597;BMP180;70000;51.176;-115.568;2023-07-22T00:31:45;86697.60;;;29.66
69597;BMP180;70000;51.176;-115.568;2023-07-22T00:34:20;86698.40;;;29.48
69597;BMP180;70000;51.176;-115.568;2023-07-22T00:36:54;86702.40;;;29.30
69597;BMP180;70000;51.176;-115.568;2023-07-22T00:39:23;86696.20;;;29.20
69597;BMP180;70000;51.176;-115.568;2023-07-22T00:41:56;86699.20;;;28.98
69597;BMP180;70000;51.176;-115.568;2023-07-22T00:44:25;86720.40;;;28.80
69597;BMP180;70000;51.176;-115.568;2023-07-22T00:47:20;86719.80;;;28.62
69597;BMP180;70000;51.176;-115.568;2023-07-22T00:50:10;86716.80;;;28.40
69597;BMP180;70000;51.176;-115.568;2023-07-22T00:52:47;86708.40;;;28.28
69597;BMP180;70000;51.176;-115.568;2023-07-22T00:55:49;86714.00;;;28.02
69597;BMP180;70000;51.176;-115.568;2023-07-22T00:58:20;86712.40;;;28.00
69597;BMP180;70000;51.176;-115.568;2023-07-22T01:01:06;86727.00;;;27.90
69597;BMP180;70000;51.176;-115.568;2023-07-22T01:03:36;86730.00;;;27.90
69597;BMP180;70000;51.176;-115.568;2023-07-22T01:06:05;86726.80;;;27.80
69597;BMP180;70000;51.176;-115.568;2023-07-22T01:08:42;86734.60;;;27.78
69597;BMP180;70000;51.176;-115.568;2023-07-22T01:11:31;86729.80;;;27.70
69597;BMP180;70000;51.176;-115.568;2023-07-22T01:14:07;86726.00;;;27.60
69597;BMP180;70000;51.176;-115.568;2023-07-22T01:17:20;86719.80;;;27.60
69597;BMP180;70000;51.176;-115.568;2023-07-22T01:19:56;86727.60;;;27.50
69597;BMP180;70000;51.176;-115.568;2023-07-22T01:22:28;86729.00;;;27.50
69597;BMP180;70000;51.176;-115.568;2023-07-22T01:25:00;86725.00;;;27.50
69597;BMP180;70000;51.176;-115.568;2023-07-22T01:27:30;86707.60;;;27.50
69597;BMP180;70000;51.176;-115.568;2023-07-22T01:30:29;86731.00;;;27.50
69597;BMP180;70000;51.176;-115.568;2023-07-22T01:33:14;86713.40;;;27.40
69597;BMP180;70000;51.176;-115.568;2023-07-22T01:35:47;86734.00;;;27.30
69597;BMP180;70000;51.176;-115.568;2023-07-22T01:38:17;86731.40;;;27.20
69597;BMP180;70000;51.176;-115.568;2023-07-22T01:41:09;86741.40;;;27.10
69597;BMP180;70000;51.176;-115.568;2023-07-22T01:43:47;86748.60;;;26.90
69597;BMP180;70000;51.176;-115.568;2023-07-22T01:46:18;86733.20;;;26.80
69597;BMP180;70000;51.176;-115.568;2023-07-22T01:48:50;86737.00;;;26.70
69597;BMP180;70000;51.176;-115.568;2023-07-22T01:51:22;86734.60;;;26.60
69597;BMP180;70000;51.176;-115.568;2023-07-22T01:53:59;86727.60;;;26.60
69597;BMP180;70000;51.176;-115.568;2023-07-22T01:56:51;86735.40;;;26.60
69597;BMP180;70000;51.176;-115.568;2023-07-22T02:02:57;86737.40;;;26.42
69597;BMP180;70000;51.176;-115.568;2023-07-22T02:05:38;86740.40;;;26.40
69597;BMP180;70000;51.176;-115.568;2023-07-22T02:08:27;86734.60;;;26.30
69597;BMP180;70000;51.176;-115.568;2023-07-22T02:11:12;86737.40;;;26.30
69597;BMP180;70000;51.176;-115.568;2023-07-22T02:13:46;86739.80;;;26.20
69597;BMP180;70000;51.176;-115.568;2023-07-22T02:16:19;86743.80;;;26.20
69597;BMP180;70000;51.176;-115.568;2023-07-22T02:18:48;86741.00;;;26.10
69597;BMP180;70000;51.176;-115.568;2023-07-22T02:21:21;86749.20;;;26.10
69597;BMP180;70000;51.176;-115.568;2023-07-22T02:23:50;86750.00;;;26.00
69597;BMP180;70000;51.176;-115.568;2023-07-22T02:26:20;86756.40;;;26.00
69597;BMP180;70000;51.176;-115.568;2023-07-22T02:28:50;86760.00;;;25.90
69597;BMP180;70000;51.176;-115.568;2023-07-22T02:31:32;86769.60;;;25.80
69597;BMP180;70000;51.176;-115.568;2023-07-22T02:34:01;86763.80;;;25.70
69597;BMP180;70000;51.176;-115.568;2023-07-22T02:36:31;86755.40;;;25.58
69597;BMP180;70000;51.176;-115.568;2023-07-22T02:39:00;86755.80;;;25.40
69597;BMP180;70000;51.176;-115.568;2023-07-22T02:41:30;86769.60;;;25.30
69597;BMP180;70000;51.176;-115.568;2023-07-22T02:44:00;86770.20;;;25.20
69597;BMP180;70000;51.176;-115.568;2023-07-22T02:46:30;86763.60;;;25.10
69597;BMP180;70000;51.176;-115.568;2023-07-22T02:49:00;86772.20;;;24.90
69597;BMP180;70000;51.176;-115.568;2023-07-22T02:51:31;86771.00;;;24.80
69597;BMP180;70000;51.176;-115.568;2023-07-22T02:54:01;86772.40;;;24.80
69597;BMP180;70000;51.176;-115.568;2023-07-22T02:56:31;86782.60;;;24.70
69597;BMP180;70000;51.176;-115.568;2023-07-22T02:59:00;86768.60;;;24.60
69597;BMP180;70000;51.176;-115.568;2023-07-22T03:01:30;86780.60;;;24.50
69597;BMP180;70000;51.176;-115.568;2023-07-22T03:04:00;86777.20;;;24.42
69597;BMP180;70000;51.176;-115.568;2023-07-22T03:06:30;86771.80;;;24.40
69597;BMP180;70000;51.176;-115.568;2023-07-22T03:09:00;86765.80;;;24.30
69597;BMP180;70000;51.176;-115.568;2023-07-22T03:11:34;86760.80;;;24.20
69597;BMP180;70000;51.176;-115.568;2023-07-22T03:14:09;86764.00;;;24.18
69597;BMP180;70000;51.176;-115.568;2023-07-22T03:16:39;86765.40;;;24.00
69597;BMP180;70000;51.176;-115.568;2023-07-22T03:19:08;86764.20;;;23.92
69597;BMP180;70000;51.176;-115.568;2023-07-22T03:21:39;86767.40;;;23.88
69597;BMP180;70000;51.176;-115.568;2023-07-22T03:24:09;86767.60;;;23.80
69597;BMP180;70000;51.176;-115.568;2023-07-22T03:26:39;86767.60;;;23.72
69597;BMP180;70000;51.176;-115.568;2023-07-22T03:29:09;86765.60;;;23.70
69597;BMP180;70000;51.176;-115.568;2023-07-22T03:31:39;86770.20;;;23.60
69597;BMP180;70000;51.176;-115.568;2023-07-22T03:34:09;86769.80;;;23.50
69597;BMP180;70000;51.176;-115.568;2023-07-22T03:36:46;86769.60;;;23.40
69597;BMP180;70000;51.176;-115.568;2023-07-22T03:39:21;86766.00;;;23.40
69597;BMP180;70000;51.176;-115.568;2023-07-22T03:45:48;86771.40;;;23.20
69597;BMP180;70000;51.176;-115.568;2023-07-22T03:48:44;86777.20;;;23.10
69597;BMP180;70000;51.176;-115.568;2023-07-22T03:51:44;86775.00;;;23.00
69597;BMP180;70000;51.176;-115.568;2023-07-22T03:54:45;86774.20;;;22.92
69597;BMP180;70000;51.176;-115.568;2023-07-22T04:01:36;86777.40;;;22.80
69597;BMP180;70000;51.176;-115.568;2023-07-22T04:04:57;86773.00;;;22.70
69597;BMP180;70000;51.176;-115.568;2023-07-22T04:08:25;86774.60;;;22.60
69597;BMP180;70000;51.176;-115.568;2023-07-22T04:11:30;86773.00;;;22.56
69597;BMP180;70000;51.176;-115.568;2023-07-22T04:14:38;86773.80;;;22.50
69597;BMP180;70000;51.176;-115.568;2023-07-22T04:21:31;86777.60;;;22.36
69597;BMP180;70000;51.176;-115.568;2023-07-22T04:24:13;86780.20;;;22.30
69597;BMP180;70000;51.176;-115.568;2023-07-22T04:27:20;86782.20;;;22.28
69597;BMP180;70000;51.176;-115.568;2023-07-22T04:30:10;86783.80;;;22.20
69597;BMP180;70000;51.176;-115.568;2023-07-22T04:33:07;86786.40;;;22.20
69597;BMP180;70000;51.176;-115.568;2023-07-22T04:35:44;86787.80;;;22.20
69597;BMP180;70000;51.176;-115.568;2023-07-22T04:38:26;86786.20;;;22.20
69597;BMP180;70000;51.176;-115.568;2023-07-22T04:41:07;86779.40;;;22.20
69597;BMP180;70000;51.176;-115.568;2023-07-22T04:43:49;86777.00;;;22.20
69597;BMP180;70000;51.176;-115.568;2023-07-22T04:46:43;86776.20;;;22.20
69597;BMP180;70000;51.176;-115.568;2023-07-22T04:49:29;86773.60;;;22.12
69597;BMP180;70000;51.176;-115.568;2023-07-22T04:52:31;86774.60;;;22.12
69597;BMP180;70000;51.176;-115.568;2023-07-22T04:55:23;86769.20;;;22.12
69597;BMP180;70000;51.176;-115.568;2023-07-22T04:58:28;86773.00;;;22.10
69597;BMP180;70000;51.176;-115.568;2023-07-22T05:01:24;86766.20;;;22.10
69597;BMP180;70000;51.176;-115.568;2023-07-22T05:04:08;86759.00;;;22.10
69597;BMP180;70000;51.176;-115.568;2023-07-22T05:06:48;86757.20;;;22.00
69597;BMP180;70000;51.176;-115.568;2023-07-22T05:12:39;86751.20;;;22.00
69597;BMP180;70000;51.176;-115.568;2023-07-22T05:15:20;86751.40;;;22.00
69597;BMP180;70000;51.176;-115.568;2023-07-22T05:18:10;86742.80;;;21.90
69597;BMP180;70000;51.176;-115.568;2023-07-22T05:21:15;86738.40;;;21.80
69597;BMP180;70000;51.176;-115.568;2023-07-22T05:23:53;86737.80;;;21.72
69597;BMP180;70000;51.176;-115.568;2023-07-22T05:26:34;86736.40;;;21.70
69597;BMP180;70000;51.176;-115.568;2023-07-22T05:29:42;86737.20;;;21.70
69597;BMP180;70000;51.176;-115.568;2023-07-22T05:33:04;86735.60;;;21.60
69597;BMP180;70000;51.176;-115.568;2023-07-22T05:53:49;86745.20;;;21.84
69597;BMP180;70000;51.176;-115.568;2023-07-22T05:56:38;86753.40;;;21.90
69597;BMP180;70000;51.176;-115.568;2023-07-22T05:59:10;86772.00;;;21.80
69597;BMP180;70000;51.176;-115.568;2023-07-22T06:02:01;86790.20;;;21.80
69597;BMP180;70000;51.176;-115.568;2023-07-22T06:04:47;86800.60;;;21.70
69597;BMP180;70000;51.176;-115.568;2023-07-22T06:07:45;86777.00;;;21.70
69597;BMP180;70000;51.176;-115.568;2023-07-22T06:10:54;86777.60;;;21.60
69597;BMP180;70000;51.176;-115.568;2023-07-22T06:13:56;86801.40;;;21.60
69597;BMP180;70000;51.176;-115.568;2023-07-22T06:16:44;86820.20;;;21.50
69597;BMP180;70000;51.176;-115.568;2023-07-22T06:23:04;86890.80;;;21.40
69597;BMP180;70000;51.176;-115.568;2023-07-22T06:25:44;86914.60;;;21.40
69597;BMP180;70000;51.176;-115.568;2023-07-22T06:28:13;86910.00;;;21.30
69597;BMP180;70000;51.176;-115.568;2023-07-22T06:30:45;86904.40;;;21.20
69597;BMP180;70000;51.176;-115.568;2023-07-22T06:33:14;86881.60;;;21.20
69597;BMP180;70000;51.176;-115.568;2023-07-22T06:35:46;86844.60;;;21.10
69597;BMP180;70000;51.176;-115.568;2023-07-22T06:38:21;86816.20;;;21.00
69597;BMP180;70000;51.176;-115.568;2023-07-22T06:40:55;86811.40;;;20.90
69597;BMP180;70000;51.176;-115.568;2023-07-22T06:43:34;86829.20;;;20.80
69597;BMP180;70000;51.176;-115.568;2023-07-22T06:46:06;86840.20;;;20.78
69597;BMP180;70000;51.176;-115.568;2023-07-22T06:48:35;86844.00;;;20.70
69597;BMP180;70000;51.176;-115.568;2023-07-22T06:51:50;86845.40;;;20.60
69597;BMP180;70000;51.176;-115.568;2023-07-22T06:54:22;86857.80;;;20.42
69597;BMP180;70000;51.176;-115.568;2023-07-22T06:56:54;86863.80;;;20.30
69597;BMP180;70000;51.176;-115.568;2023-07-22T06:59:23;86861.40;;;20.20
69597;BMP180;70000;51.176;-115.568;2023-07-22T07:02:13;86856.00;;;20.10
69597;BMP180;70000;51.176;-115.568;2023-07-22T07:04:47;86854.60;;;20.10
69597;BMP180;70000;51.176;-115.568;2023-07-22T07:07:23;86855.40;;;20.00
69597;BMP180;70000;51.176;-115.568;2023-07-22T07:09:53;86850.00;;;19.90
69597;BMP180;70000;51.176;-115.568;2023-07-22T07:12:23;86846.20;;;19.80
69597;BMP180;70000;51.176;-115.568;2023-07-22T07:14:55;86854.60;;;19.76
69597;BMP180;70000;51.176;-115.568;2023-07-22T07:17:35;86857.80;;;19.70
69597;BMP180;70000;51.176;-115.568;2023-07-22T07:20:09;86857.80;;;19.64
69597;BMP180;70000;51.176;-115.568;2023-07-22T07:22:39;86856.60;;;19.60
69597;BMP180;70000;51.176;-115.568;2023-07-22T07:25:14;86865.20;;;19.60
69597;BMP180;70000;51.176;-115.568;2023-07-22T07:27:44;86887.60;;;19.60
69597;BMP180;70000;51.176;-115.568;2023-07-22T07:30:35;86916.40;;;19.60
69597;BMP180;70000;51.176;-115.568;2023-07-22T07:33:17;86932.20;;;19.60
69597;BMP180;70000;51.176;-115.568;2023-07-22T07:36:19;86906.80;;;19.50
69597;BMP180;70000;51.176;-115.568;2023-07-22T07:38:53;86899.60;;;19.50
69597;BMP180;70000;51.176;-115.568;2023-07-22T07:41:22;86883.20;;;19.50
69597;BMP180;70000;51.176;-115.568;2023-07-22T07:43:52;86868.00;;;19.40
69597;BMP180;70000;51.176;-115.568;2023-07-22T07:46:27;86867.60;;;19.40
69597;BMP180;70000;51.176;-115.568;2023-07-22T07:49:05;86870.80;;;19.38
69597;BMP180;70000;51.176;-115.568;2023-07-22T07:52:06;86871.60;;;19.32
69597;BMP180;70000;51.176;-115.568;2023-07-22T07:55:07;86861.80;;;19.30
69597;BMP180;70000;51.176;-115.568;2023-07-22T07:58:36;86856.80;;;19.22
69597;BMP180;70000;51.176;-115.568;2023-07-22T08:01:45;86862.40;;;19.20
69597;BMP180;70000;51.176;-115.568;2023-07-22T08:04:20;86835.60;;;19.10
69597;BMP180;70000;51.176;-115.568;2023-07-22T08:06:53;86832.60;;;19.10
69597;BMP180;70000;51.176;-115.568;2023-07-22T08:09:22;86832.80;;;19.00
69597;BMP180;70000;51.176;-115.568;2023-07-22T08:11:52;86836.20;;;19.00
69597;BMP180;70000;51.176;-115.568;2023-07-22T08:14:24;86824.20;;;19.00
69597;BMP180;70000;51.176;-115.568;2023-07-22T08:16:56;86815.80;;;18.96
69597;BMP180;70000;51.176;-115.568;2023-07-22T08:19:35;86816.00;;;18.90
69597;BMP180;70000;51.176;-115.568;2023-07-22T08:22:15;86822.60;;;18.90
69597;BMP180;70000;51.176;-115.568;2023-07-22T08:24:44;86822.60;;;18.90
69597;BMP180;70000;51.176;-115.568;2023-07-22T08:39:07;86803.00;;;18.80
69597;BMP180;70000;51.176;-115.568;2023-07-22T08:42:03;86794.20;;;18.80
69597;BMP180;70000;51.176;-115.568;2023-07-22T08:44:49;86786.40;;;18.70
69597;BMP180;70000;51.176;-115.568;2023-07-22T08:47:29;86787.60;;;18.68
69597;BMP180;70000;51.176;-115.568;2023-07-22T08:50:20;86782.00;;;18.60
69597;BMP180;70000;51.176;-115.568;2023-07-22T08:53:53;86790.00;;;18.60
69597;BMP180;70000;51.176;-115.568;2023-07-22T08:56:43;86792.40;;;18.50
69597;BMP180;70000;51.176;-115.568;2023-07-22T09:00:01;86787.80;;;18.50
69597;BMP180;70000;51.176;-115.568;2023-07-22T09:03:00;86787.80;;;18.50
69597;BMP180;70000;51.176;-115.568;2023-07-22T09:06:18;86788.60;;;18.50
69597;BMP180;70000;51.176;-115.568;2023-07-22T09:10:02;86787.00;;;18.50
69597;BMP180;70000;51.176;-115.568;2023-07-22T09:13:29;86791.20;;;18.50
69597;BMP180;70000;51.176;-115.568;2023-07-22T09:16:06;86792.40;;;18.46
69597;BMP180;70000;51.176;-115.568;2023-07-22T09:19:16;86791.80;;;18.40
69597;BMP180;70000;51.176;-115.568;2023-07-22T09:22:28;86791.80;;;18.30
69597;BMP180;70000;51.176;-115.568;2023-07-22T09:32:53;86806.80;;;18.20
69597;BMP180;70000;51.176;-115.568;2023-07-22T09:36:02;86809.20;;;18.20
69597;BMP180;70000;51.176;-115.568;2023-07-22T09:39:06;86812.80;;;18.10
69597;BMP180;70000;51.176;-115.568;2023-07-22T09:42:05;86817.20;;;18.10
69597;BMP180;70000;51.176;-115.568;2023-07-22T09:44:37;86819.00;;;18.08
69597;BMP180;70000;51.176;-115.568;2023-07-22T09:47:10;86820.00;;;18.00
69597;BMP180;70000;51.176;-115.568;2023-07-22T09:49:58;86826.20;;;17.94
69597;BMP180;70000;51.176;-115.568;2023-07-22T09:52:33;86838.40;;;17.90
69597;BMP180;70000;51.176;-115.568;2023-07-22T09:55:09;86843.00;;;17.90
69597;BMP180;70000;51.176;-115.568;2023-07-22T09:57:52;86841.40;;;17.80
69597;BMP180;70000;51.176;-115.568;2023-07-22T10:00:35;86836.20;;;17.80
69597;BMP180;70000;51.176;-115.568;2023-07-22T10:03:10;86829.40;;;17.80
69597;BMP180;70000;51.176;-115.568;2023-07-22T10:05:46;86828.00;;;17.80
69597;BMP180;70000;51.176;-115.568;2023-07-22T10:08:20;86822.60;;;17.72
69597;BMP180;70000;51.176;-115.568;2023-07-22T10:10:59;86821.20;;;17.70
69597;BMP180;70000;51.176;-115.568;2023-07-22T10:14:04;86814.80;;;17.70
69597;BMP180;70000;51.176;-115.568;2023-07-22T10:16:59;86816.80;;;17.60
69597;BMP180;70000;51.176;-115.568;2023-07-22T10:19:41;86809.40;;;17.60
69597;BMP180;70000;51.176;-115.568;2023-07-22T10:26:00;86808.40;;;17.50
69597;BMP180;70000;51.176;-115.568;2023-07-22T10:29:09;86810.20;;;17.50
69597;BMP180;70000;51.176;-115.568;2023-07-22T10:31:55;86809.40;;;17.50
69597;BMP180;70000;51.176;-115.568;2023-07-22T10:35:04;86811.40;;;17.48
69597;BMP180;70000;51.176;-115.568;2023-07-22T10:38:14;86814.60;;;17.44
69597;BMP180;70000;51.176;-115.568;2023-07-22T10:40:56;86813.40;;;17.40
69597;BMP180;70000;51.176;-115.568;2023-07-22T10:44:00;86814.80;;;17.40
69597;BMP180;70000;51.176;-115.568;2023-07-22T10:47:04;86808.20;;;17.40
69597;BMP180;70000;51.176;-115.568;2023-07-22T10:54:12;86810.40;;;17.30
69597;BMP180;70000;51.176;-115.568;2023-07-22T10:57:26;86810.60;;;17.30
69597;BMP180;70000;51.176;-115.568;2023-07-22T11:00:52;86808.60;;;17.30
69597;BMP180;70000;51.176;-115.568;2023-07-22T11:07:42;86805.40;;;17.30
69597;BMP180;70000;51.176;-115.568;2023-07-22T11:18:56;86806.40;;;17.20
69597;BMP180;70000;51.176;-115.568;2023-07-22T11:22:07;86801.60;;;17.10
69597;BMP180;70000;51.176;-115.568;2023-07-22T11:24:54;86803.20;;;17.10
69597;BMP180;70000;51.176;-115.568;2023-07-22T11:28:08;86806.20;;;17.10
69597;BMP180;70000;51.176;-115.568;2023-07-22T11:31:19;86809.00;;;17.00
69597;BMP180;70000;51.176;-115.568;2023-07-22T11:34:34;86801.60;;;17.00
69597;BMP180;70000;51.176;-115.568;2023-07-22T11:37:47;86802.80;;;16.90
69597;BMP180;70000;51.176;-115.568;2023-07-22T11:41:02;86809.60;;;16.90
69597;BMP180;70000;51.176;-115.568;2023-07-22T11:44:21;86811.20;;;16.90
69597;BMP180;70000;51.176;-115.568;2023-07-22T11:47:31;86802.20;;;16.80
69597;BMP180;70000;51.176;-115.568;2023-07-22T11:50:03;86801.00;;;16.80
69597;BMP180;70000;51.176;-115.568;2023-07-22T11:52:33;86803.60;;;16.80
69597;BMP180;70000;51.176;-115.568;2023-07-22T11:55:03;86797.20;;;16.80
69597;BMP180;70000;51.176;-115.568;2023-07-22T11:57:32;86794.00;;;16.74
69597;BMP180;70000;51.176;-115.568;2023-07-22T12:00:02;86794.20;;;16.70
69597;BMP180;70000;51.176;-115.568;2023-07-22T12:02:39;86800.00;;;16.70
69597;BMP180;70000;51.176;-115.568;2023-07-22T12:05:22;86798.40;;;16.70
69597;BMP180;70000;51.176;-115.568;2023-07-22T12:07:53;86794.60;;;16.60
69597;BMP180;70000;51.176;-115.568;2023-07-22T12:10:24;86790.00;;;16.60
69597;BMP180;70000;51.176;-115.568;2023-07-22T12:12:54;86789.60;;;16.60
69597;BMP180;70000;51.176;-115.568;2023-07-22T12:15:23;86789.00;;;16.54
69597;BMP180;70000;51.176;-115.568;2023-07-22T12:18:01;86793.00;;;16.50
69597;BMP180;70000;51.176;-115.568;2023-07-22T12:20:33;86793.20;;;16.50
69597;BMP180;70000;51.176;-115.568;2023-07-22T12:23:06;86793.00;;;16.50
69597;BMP180;70000;51.176;-115.568;2023-07-22T12:25:38;86796.00;;;16.50
69597;BMP180;70000;51.176;-115.568;2023-07-22T12:28:07;86795.20;;;16.50
69597;BMP180;70000;51.176;-115.568;2023-07-22T12:30:37;86795.60;;;16.48
69597;BMP180;70000;51.176;-115.568;2023-07-22T12:33:09;86795.00;;;16.50
69597;BMP180;70000;51.176;-115.568;2023-07-22T12:35:40;86790.40;;;16.50
69597;BMP180;70000;51.176;-115.568;2023-07-22T12:38:09;86793.40;;;16.40
69597;BMP180;70000;51.176;-115.568;2023-07-22T12:40:39;86794.00;;;16.40
69597;BMP180;70000;51.176;-115.568;2023-07-22T12:43:08;86788.40;;;16.40
69597;BMP180;70000;51.176;-115.568;2023-07-22T12:45:40;86787.40;;;16.34
69597;BMP180;70000;51.176;-115.568;2023-07-22T12:48:40;86789.80;;;16.30
69597;BMP180;70000;51.176;-115.568;2023-07-22T12:51:18;86791.80;;;16.30
69597;BMP180;70000;51.176;-115.568;2023-07-22T12:54:00;86786.00;;;16.30
69597;BMP180;70000;51.176;-115.568;2023-07-22T12:56:37;86785.60;;;16.20
69597;BMP180;70000;51.176;-115.568;2023-07-22T12:59:23;86789.60;;;16.20
69597;BMP180;70000;51.176;-115.568;2023-07-22T13:02:03;86792.00;;;16.20
69597;BMP180;70000;51.176;-115.568;2023-07-22T13:04:52;86794.20;;;16.20
69597;BMP180;70000;51.176;-115.568;2023-07-22T13:07:34;86787.80;;;16.12
69597;BMP180;70000;51.176;-115.568;2023-07-22T13:10:31;86793.00;;;16.10
69597;BMP180;70000;51.176;-115.568;2023-07-22T13:13:24;86791.20;;;16.10
69597;BMP180;70000;51.176;-115.568;2023-07-22T13:16:06;86781.80;;;16.00
69597;BMP180;70000;51.176;-115.568;2023-07-22T13:19:04;86787.60;;;16.00
69597;BMP180;70000;51.176;-115.568;2023-07-22T13:21:34;86781.40;;;15.90
69597;BMP180;70000;51.176;-115.568;2023-07-22T13:24:04;86777.40;;;15.90
69597;BMP180;70000;51.176;-115.568;2023-07-22T13:26:37;86775.40;;;15.90
69597;BMP180;70000;51.176;-115.568;2023-07-22T13:29:08;86776.40;;;15.90
69597;BMP180;70000;51.176;-115.568;2023-07-22T13:31:39;86776.00;;;15.90
69597;BMP180;70000;51.176;-115.568;2023-07-22T13:34:09;86778.40;;;15.90
69597;BMP180;70000;51.176;-115.568;2023-07-22T13:37:13;86775.20;;;15.90
69597;BMP180;70000;51.176;-115.568;2023-07-22T13:40:01;86772.20;;;15.90
69597;BMP180;70000;51.176;-115.568;2023-07-22T13:43:09;86769.40;;;15.90
69597;BMP180;70000;51.176;-115.568;2023-07-22T13:46:04;86768.20;;;15.90
69597;BMP180;70000;51.176;-115.568;2023-07-22T13:52:05;86759.80;;;15.90
69597;BMP180;70000;51.176;-115.568;2023-07-22T13:54:49;86761.00;;;15.90
69597;BMP180;70000;51.176;-115.568;2023-07-22T13:57:25;86759.00;;;15.90
69597;BMP180;70000;51.176;-115.568;2023-07-22T14:00:23;86752.20;;;15.90
69597;BMP180;70000;51.176;-115.568;2023-07-22T14:02:58;86756.20;;;15.90
69597;BMP180;70000;51.176;-115.568;2023-07-22T14:05:47;86755.60;;;15.90
69597;BMP180;70000;51.176;-115.568;2023-07-22T14:08:56;86752.40;;;15.90
69597;BMP180;70000;51.176;-115.568;2023-07-22T14:11:32;86753.00;;;15.84
69597;BMP180;70000;51.176;-115.568;2023-07-22T14:14:33;86756.80;;;15.86
69597;BMP180;70000;51.176;-115.568;2023-07-22T14:17:35;86757.60;;;15.90
69597;BMP180;70000;51.176;-115.568;2023-07-22T14:20:29;86752.40;;;15.90
69597;BMP180;70000;51.176;-115.568;2023-07-22T14:23:03;86757.40;;;15.90
69597;BMP180;70000;51.176;-115.568;2023-07-22T14:25:33;86747.20;;;15.90
69597;BMP180;70000;51.176;-115.568;2023-07-22T14:28:03;86750.40;;;16.00
69597;BMP180;70000;51.176;-115.568;2023-07-22T14:30:35;86746.20;;;16.00
69597;BMP180;70000;51.176;-115.568;2023-07-22T14:33:05;86743.40;;;16.02
69597;BMP180;70000;51.176;-115.568;2023-07-22T14:35:35;86744.40;;;16.10
69597;BMP180;70000;51.176;-115.568;2023-07-22T14:38:05;86737.20;;;16.10
69597;BMP180;70000;51.176;-115.568;2023-07-22T14:40:35;86736.80;;;16.20
69597;BMP180;70000;51.176;-115.568;2023-07-22T14:43:04;86740.60;;;16.20
69597;BMP180;70000;51.176;-115.568;2023-07-22T14:45:35;86737.80;;;16.30
69597;BMP180;70000;51.176;-115.568;2023-07-22T14:48:07;86733.20;;;16.30
69597;BMP180;70000;51.176;-115.568;2023-07-22T14:50:42;86724.80;;;16.40
69597;BMP180;70000;51.176;-115.568;2023-07-22T14:53:15;86721.20;;;16.48
69597;BMP180;70000;51.176;-115.568;2023-07-22T14:55:48;86722.00;;;16.50
69597;BMP180;70000;51.176;-115.568;2023-07-22T14:58:22;86715.60;;;16.50
69597;BMP180;70000;51.176;-115.568;2023-07-22T15:00:52;86715.00;;;16.60
69597;BMP180;70000;51.176;-115.568;2023-07-22T15:03:24;86711.00;;;16.60
69597;BMP180;70000;51.176;-115.568;2023-07-22T15:05:54;86711.40;;;16.70
69597;BMP180;70000;51.176;-115.568;2023-07-22T15:08:24;86708.40;;;16.74
69597;BMP180;70000;51.176;-115.568;2023-07-22T15:10:55;86703.20;;;16.80
69597;BMP180;70000;51.176;-115.568;2023-07-22T15:13:25;86701.00;;;16.90
69597;BMP180;70000;51.176;-115.568;2023-07-22T15:15:55;86697.00;;;17.00
69597;BMP180;70000;51.176;-115.568;2023-07-22T15:18:25;86696.20;;;17.00
69597;BMP180;70000;51.176;-115.568;2023-07-22T15:20:57;86691.80;;;17.10
69597;BMP180;70000;51.176;-115.568;2023-07-22T15:23:27;86683.20;;;17.18
69597;BMP180;70000;51.176;-115.568;2023-07-22T15:25:57;86679.80;;;17.20
69597;BMP180;70000;51.176;-115.568;2023-07-22T15:28:37;86678.00;;;17.28
69597;BMP180;70000;51.176;-115.568;2023-07-22T15:31:17;86680.00;;;17.30
69597;BMP180;70000;51.176;-115.568;2023-07-22T15:33:49;86674.00;;;17.36
69597;BMP180;70000;51.176;-115.568;2023-07-22T15:36:21;86673.00;;;17.40
69597;BMP180;70000;51.176;-115.568;2023-07-22T15:38:51;86668.80;;;17.50
69597;BMP180;70000;51.176;-115.568;2023-07-22T15:41:24;86661.80;;;17.50
69597;BMP180;70000;51.176;-115.568;2023-07-22T15:43:57;86658.20;;;17.60
69597;BMP180;70000;51.176;-115.568;2023-07-22T15:46:29;86658.00;;;17.70
69597;BMP180;70000;51.176;-115.568;2023-07-22T15:48:59;86653.40;;;17.70
69597;BMP180;70000;51.176;-115.568;2023-07-22T15:51:29;86651.60;;;17.80
69597;BMP180;70000;51.176;-115.568;2023-07-22T15:53:59;86650.20;;;17.90
69597;BMP180;70000;51.176;-115.568;2023-07-22T15:56:35;86647.00;;;17.94
69597;BMP180;70000;51.176;-115.568;2023-07-22T15:59:44;86643.20;;;18.00
69597;BMP180;70000;51.176;-115.568;2023-07-22T16:02:24;86643.20;;;18.10
69597;BMP180;70000;51.176;-115.568;2023-07-22T16:05:12;86636.00;;;18.20
69597;BMP180;70000;51.176;-115.568;2023-07-22T16:08:05;86632.60;;;18.30
69597;BMP180;70000;51.176;-115.568;2023-07-22T16:11:11;86628.00;;;18.40
69597;BMP180;70000;51.176;-115.568;2023-07-22T16:13:45;86624.20;;;18.44
69597;BMP180;70000;51.176;-115.568;2023-07-22T16:16:26;86620.40;;;18.50
69597;BMP180;70000;51.176;-115.568;2023-07-22T16:19:23;86619.60;;;18.60
69597;BMP180;70000;51.176;-115.568;2023-07-22T16:21:53;86614.00;;;18.70